createdAt,value
2022-08-26T00:01:46.267Z,77.55
2022-08-26T00:04:13.999Z,77.45
2022-08-26T00:06:42.476Z,77.43
2022-08-26T00:09:16.007Z,77.67
2022-08-26T00:11:50.299Z,77.76
2022-08-26T00:14:17.766Z,77.95
2022-08-26T00:16:47.466Z,77.83
2022-08-26T00:19:16.008Z,77.95
2022-08-26T00:21:42.617Z,77.99
2022-08-26T00:24:09.186Z,78.30
2022-08-26T00:26:36.194Z,78.26
2022-08-26T00:29:03.765Z,78.42
2022-08-26T00:31:32.290Z,78.53
2022-08-26T00:33:59.447Z,78.34
2022-08-26T00:36:29.816Z,78.59
2022-08-26T00:38:58.098Z,78.68
2022-08-26T00:41:24.915Z,78.95
2022-08-26T00:43:52.948Z,78.99
2022-08-26T00:46:23.457Z,79.47
2022-08-26T00:48:53.745Z,79.70
2022-08-26T00:51:24.796Z,79.81
2022-08-26T00:54:07.517Z,80.38
2022-08-26T00:56:55.982Z,80.00
2022-08-26T00:59:26.678Z,80.79
2022-08-26T01:01:54.947Z,80.95
2022-08-26T01:04:23.415Z,81.25
2022-08-26T01:06:53.674Z,81.32
2022-08-26T01:09:22.560Z,81.43
2022-08-26T01:11:52.605Z,81.63
2022-08-26T01:14:22.321Z,81.91
2022-08-26T01:16:49.260Z,81.98
2022-08-26T01:19:36.123Z,81.79
2022-08-26T01:22:09.868Z,81.89
2022-08-26T01:24:39.141Z,82.13
2022-08-26T01:27:09.291Z,82.23
2022-08-26T01:29:39.366Z,82.27
2022-08-26T01:32:08.611Z,82.34
2022-08-26T01:34:38.040Z,82.43
2022-08-26T01:37:13.769Z,82.78
2022-08-26T01:39:46.330Z,82.88
2022-08-26T01:42:14.985Z,82.94
2022-08-26T01:44:46.062Z,83.07
2022-08-26T01:47:15.536Z,83.60
2022-08-26T01:49:45.554Z,83.63
2022-08-26T01:52:16.567Z,83.87
2022-08-26T01:54:43.425Z,84.08
2022-08-26T01:57:15.089Z,84.25
2022-08-26T01:59:42.723Z,84.51
2022-08-26T02:02:09.364Z,84.54
2022-08-26T02:04:43.856Z,84.89
2022-08-26T02:07:12.275Z,85.00
2022-08-26T02:09:41.643Z,85.13
2022-08-26T02:12:10.721Z,85.01
2022-08-26T02:14:44.029Z,85.34
2022-08-26T02:17:12.091Z,85.51
2022-08-26T02:19:45.168Z,85.62
2022-08-26T02:22:16.913Z,85.48
2022-08-26T02:25:08.786Z,85.96
2022-08-26T02:27:35.985Z,85.38
2022-08-26T02:30:11.304Z,85.70
2022-08-26T02:32:38.174Z,85.58
2022-08-26T02:35:08.922Z,85.70
2022-08-26T02:37:36.026Z,85.73
2022-08-26T02:40:05.162Z,85.42
2022-08-26T02:42:32.246Z,85.53
2022-08-26T02:45:01.695Z,85.54
2022-08-26T02:47:29.509Z,85.83
2022-08-26T02:49:59.345Z,85.92
2022-08-26T02:52:26.606Z,85.87
2022-08-26T02:54:55.197Z,86.19
2022-08-26T02:57:22.193Z,86.22
2022-08-26T02:59:49.346Z,86.43
2022-08-26T03:02:17.324Z,86.67
2022-08-26T03:04:57.858Z,86.86
2022-08-26T03:07:30.417Z,86.91
2022-08-26T03:09:57.997Z,86.94
2022-08-26T03:12:25.707Z,87.08
2022-08-26T03:14:53.184Z,87.21
2022-08-26T03:17:21.004Z,87.26
2022-08-26T03:19:49.835Z,87.30
2022-08-26T03:22:19.603Z,87.48
2022-08-26T03:24:48.529Z,87.55
2022-08-26T03:27:15.780Z,87.59
2022-08-26T03:30:02.658Z,87.76
2022-08-26T03:32:29.633Z,87.97
2022-08-26T03:34:57.477Z,88.45
2022-08-26T03:37:25.241Z,88.19
2022-08-26T03:39:52.586Z,88.35
2022-08-26T03:42:21.646Z,88.46
2022-08-26T03:44:48.826Z,88.54
2022-08-26T03:47:15.693Z,88.70
2022-08-26T03:49:42.408Z,89.00
2022-08-26T03:52:09.122Z,89.16
2022-08-26T03:54:36.830Z,89.21
2022-08-26T03:57:03.709Z,89.48
2022-08-26T03:59:31.750Z,89.34
2022-08-26T04:01:58.425Z,89.40
2022-08-26T04:04:25.664Z,89.71
2022-08-26T04:06:58.519Z,89.73
2022-08-26T04:09:26.501Z,89.89
2022-08-26T04:11:55.862Z,89.98
2022-08-26T04:14:27.805Z,89.95
2022-08-26T04:16:56.190Z,90.12
2022-08-26T04:19:27.088Z,90.28
2022-08-26T04:21:53.922Z,90.44
2022-08-26T04:24:23.801Z,90.61
2022-08-26T04:26:50.616Z,90.71
2022-08-26T04:29:20.594Z,91.04
2022-08-26T04:31:55.348Z,91.09
2022-08-26T04:34:28.555Z,91.13
2022-08-26T04:36:56.554Z,91.44
2022-08-26T04:39:27.808Z,91.25
2022-08-26T04:41:55.489Z,91.46
2022-08-26T04:44:24.845Z,91.80
2022-08-26T04:46:52.389Z,91.80
2022-08-26T04:49:20.818Z,92.10
2022-08-26T04:51:48.855Z,92.03
2022-08-26T04:54:16.269Z,92.16
2022-08-26T04:56:46.366Z,92.06
2022-08-26T04:59:18.055Z,91.88
2022-08-26T05:01:48.431Z,92.06
2022-08-26T05:04:18.729Z,92.11
2022-08-26T05:06:47.193Z,92.21
2022-08-26T05:09:15.292Z,92.04
2022-08-26T05:11:42.092Z,92.37
2022-08-26T05:14:09.623Z,92.30
2022-08-26T05:16:36.501Z,92.22
2022-08-26T05:19:06.799Z,92.23
2022-08-26T05:21:38.666Z,92.39
2022-08-26T05:24:11.048Z,92.66
2022-08-26T05:26:38.017Z,92.75
2022-08-26T05:29:06.793Z,92.98
2022-08-26T05:31:34.562Z,93.11
2022-08-26T05:34:04.721Z,93.18
2022-08-26T05:36:33.943Z,93.12
2022-08-26T05:39:03.657Z,93.26
2022-08-26T05:41:36.774Z,93.25
2022-08-26T05:44:08.135Z,93.10
2022-08-26T05:46:36.567Z,93.00
2022-08-26T05:49:06.117Z,93.01
2022-08-26T05:51:41.830Z,92.88
2022-08-26T05:54:10.851Z,92.37
2022-08-26T05:56:38.299Z,92.13
2022-08-26T05:59:04.954Z,92.26
2022-08-26T06:01:32.302Z,92.01
2022-08-26T06:04:02.717Z,92.06
2022-08-26T06:06:32.600Z,92.11
2022-08-26T06:09:01.952Z,92.13
2022-08-26T06:11:32.109Z,92.27
2022-08-26T06:14:03.953Z,92.28
2022-08-26T06:16:34.661Z,92.46
2022-08-26T06:19:03.074Z,92.63
2022-08-26T06:21:32.891Z,92.70
2022-08-26T06:24:21.248Z,92.61
2022-08-26T06:26:57.367Z,92.67
2022-08-26T06:29:26.037Z,92.40
2022-08-26T06:31:54.152Z,92.26
2022-08-26T06:34:29.722Z,92.08
2022-08-26T06:37:02.471Z,92.28
2022-08-26T06:39:30.884Z,92.22
2022-08-26T06:41:58.823Z,92.20
2022-08-26T06:44:25.758Z,92.30
2022-08-26T06:46:52.498Z,92.35
2022-08-26T06:49:27.510Z,92.12
2022-08-26T06:51:58.356Z,92.22
2022-08-26T06:54:26.620Z,92.39
2022-08-26T06:56:53.684Z,92.84
2022-08-26T06:59:21.119Z,93.10
2022-08-26T07:01:47.782Z,93.27
2022-08-26T07:04:21.986Z,93.02
2022-08-26T07:06:54.085Z,93.10
2022-08-26T07:09:23.646Z,92.86
2022-08-26T07:11:51.478Z,92.43
2022-08-26T07:14:21.569Z,92.14
2022-08-26T07:16:52.376Z,92.25
2022-08-26T07:19:31.031Z,91.85
2022-08-26T07:22:02.193Z,91.32
2022-08-26T07:24:29.900Z,90.43
2022-08-26T07:27:01.967Z,90.36
2022-08-26T07:29:29.831Z,90.33
2022-08-26T07:31:56.626Z,90.02
2022-08-26T07:34:24.047Z,89.67
2022-08-26T07:36:51.747Z,89.92
2022-08-26T07:39:19.112Z,89.83
2022-08-26T07:41:47.241Z,89.72
2022-08-26T07:44:15.024Z,89.33
2022-08-26T07:46:41.906Z,89.08
2022-08-26T07:49:12.017Z,89.10
2022-08-26T07:51:39.636Z,88.82
2022-08-26T07:54:06.993Z,88.42
2022-08-26T07:56:33.635Z,88.63
2022-08-26T07:59:03.050Z,88.92
2022-08-26T08:01:41.109Z,87.69
2022-08-26T08:04:13.846Z,87.61
2022-08-26T08:06:41.168Z,87.58
2022-08-26T08:09:13.169Z,87.65
2022-08-26T08:11:41.368Z,87.73
2022-08-26T08:14:11.640Z,87.89
2022-08-26T08:16:46.069Z,87.44
2022-08-26T08:19:15.165Z,86.74
2022-08-26T08:21:43.429Z,87.17
2022-08-26T08:24:11.137Z,87.78
2022-08-26T08:26:37.809Z,88.07
2022-08-26T08:29:08.308Z,88.26
2022-08-26T08:31:56.454Z,87.76
2022-08-26T08:34:24.230Z,86.15
2022-08-26T08:36:53.382Z,85.67
2022-08-26T08:39:20.646Z,84.75
2022-08-26T08:41:58.178Z,84.96
2022-08-26T08:47:11.643Z,84.31
2022-08-26T08:49:38.892Z,84.23
2022-08-26T08:52:31.009Z,84.67
2022-08-26T08:54:58.145Z,85.03
2022-08-26T08:57:48.237Z,84.62
2022-08-26T09:00:30.539Z,86.32
2022-08-26T09:03:03.792Z,85.90
2022-08-26T09:05:42.591Z,84.74
2022-08-26T09:08:19.751Z,83.66
2022-08-26T09:10:59.463Z,82.85
2022-08-26T09:13:27.475Z,82.86
2022-08-26T09:16:07.412Z,82.42
2022-08-26T09:18:46.302Z,81.99
2022-08-26T09:21:15.654Z,80.54
2022-08-26T09:23:49.271Z,80.64
2022-08-26T09:26:42.779Z,80.45
2022-08-26T09:29:23.944Z,79.67
2022-08-26T09:31:52.036Z,79.79
2022-08-26T09:34:27.286Z,78.98
2022-08-26T09:36:59.623Z,79.47
2022-08-26T09:39:39.009Z,78.83
2022-08-26T09:42:12.722Z,78.85
2022-08-26T09:44:57.877Z,77.95
2022-08-26T09:47:30.068Z,76.08
2022-08-26T09:50:01.552Z,74.90
2022-08-26T09:52:28.872Z,74.68
2022-08-26T09:55:12.419Z,74.03
2022-08-26T09:57:47.415Z,73.39
2022-08-26T10:00:26.317Z,72.75
2022-08-26T10:02:57.897Z,72.03
2022-08-26T10:05:45.049Z,71.97
2022-08-26T10:08:21.679Z,71.18
2022-08-26T10:10:53.085Z,70.47
2022-08-26T10:13:36.496Z,70.39
2022-08-26T10:16:24.871Z,70.36
2022-08-26T10:19:09.730Z,69.70
2022-08-26T10:21:52.164Z,68.42
2022-08-26T10:24:44.284Z,69.04
2022-08-26T10:27:49.720Z,66.58
2022-08-26T10:30:27.513Z,67.24
2022-08-26T10:33:06.561Z,67.54
2022-08-26T10:35:36.721Z,65.00
2022-08-26T10:38:14.347Z,66.59
2022-08-26T10:40:40.941Z,65.77
2022-08-26T10:43:15.561Z,65.71
2022-08-26T10:46:08.382Z,63.99
2022-08-26T10:48:47.603Z,61.00
2022-08-26T10:51:24.688Z,61.81
2022-08-26T10:54:04.373Z,58.48
2022-08-26T10:56:43.126Z,59.83
2022-08-26T10:59:35.698Z,57.10
2022-08-26T11:02:03.763Z,58.14
2022-08-26T11:04:48.457Z,59.35
2022-08-26T11:07:45.997Z,56.08
2022-08-26T11:10:38.452Z,57.00
2022-08-26T11:13:06.789Z,57.98
2022-08-26T11:15:36.714Z,55.37
2022-08-26T11:18:05.106Z,56.39
2022-08-26T11:20:39.319Z,55.75
2022-08-26T11:23:22.381Z,55.06
2022-08-26T11:26:05.170Z,51.37
2022-08-26T11:28:35.938Z,52.33
2022-08-26T11:31:05.836Z,52.16
2022-08-26T11:33:52.753Z,52.90
2022-08-26T11:36:42.844Z,52.38
2022-08-26T11:39:30.455Z,51.33
2022-08-26T11:42:02.678Z,52.01
2022-08-26T11:44:40.002Z,51.47
2022-08-26T11:47:11.331Z,51.71
2022-08-26T11:49:39.048Z,52.10
2022-08-26T11:52:26.305Z,52.65
2022-08-26T11:55:09.491Z,51.59
2022-08-26T11:57:45.354Z,49.97
2022-08-26T12:00:24.589Z,51.12
2022-08-26T12:02:52.712Z,51.67
2022-08-26T12:05:31.611Z,50.22
2022-08-26T12:08:07.010Z,49.97
2022-08-26T12:10:34.549Z,50.68
2022-08-26T12:13:03.800Z,50.70
2022-08-26T12:15:32.938Z,49.58
2022-08-26T12:18:29.181Z,48.85
2022-08-26T12:20:59.805Z,48.87
2022-08-26T12:23:54.625Z,48.60
2022-08-26T12:26:36.822Z,48.69
2022-08-26T12:29:20.312Z,48.83
2022-08-26T12:32:17.933Z,48.29
2022-08-26T12:34:48.983Z,49.29
2022-08-26T12:37:16.143Z,50.40
2022-08-26T12:39:45.712Z,50.49
2022-08-26T12:42:12.342Z,50.61
2022-08-26T12:44:53.437Z,50.95
2022-08-26T12:47:39.030Z,50.87
2022-08-26T12:50:25.671Z,51.45
2022-08-26T12:53:10.510Z,51.86
2022-08-26T12:55:45.137Z,52.78
2022-08-26T12:58:16.354Z,52.41
2022-08-26T13:00:46.146Z,52.67
2022-08-26T13:03:45.928Z,52.27
2022-08-26T13:06:26.236Z,51.58
2022-08-26T13:08:56.233Z,51.60
2022-08-26T13:11:39.478Z,50.14
2022-08-26T13:14:23.729Z,49.72
2022-08-26T13:16:51.673Z,49.68
2022-08-26T13:19:21.970Z,50.30
2022-08-26T13:21:55.563Z,50.26
2022-08-26T13:24:38.469Z,49.86
2022-08-26T13:27:07.717Z,47.56
2022-08-26T13:29:35.209Z,49.16
2022-08-26T13:32:03.052Z,48.23
2022-08-26T13:34:30.516Z,47.17
2022-08-26T13:36:57.866Z,46.74
2022-08-26T13:39:26.012Z,46.50
2022-08-26T13:41:53.358Z,45.06
2022-08-26T13:44:19.940Z,44.77
2022-08-26T13:46:46.554Z,46.10
2022-08-26T13:49:13.760Z,46.34
2022-08-26T13:51:41.762Z,46.09
2022-08-26T13:54:08.578Z,46.19
2022-08-26T13:56:36.181Z,46.48
2022-08-26T13:59:03.305Z,46.63
2022-08-26T14:01:31.579Z,46.89
2022-08-26T14:04:01.993Z,47.49
2022-08-26T14:06:30.420Z,46.75
2022-08-26T14:08:58.637Z,46.82
2022-08-26T14:11:30.227Z,46.68
2022-08-26T14:14:16.682Z,47.06
2022-08-26T14:16:59.508Z,46.81
2022-08-26T14:19:30.630Z,47.66
2022-08-26T14:21:58.769Z,47.13
2022-08-26T14:24:25.394Z,47.20
2022-08-26T14:26:52.277Z,48.31
2022-08-26T14:29:19.025Z,47.87
2022-08-26T14:31:46.555Z,47.43
2022-08-26T14:34:13.986Z,46.95
2022-08-26T14:36:41.217Z,47.26
2022-08-26T14:39:10.801Z,46.74
2022-08-26T14:41:53.943Z,46.55
2022-08-26T14:44:24.412Z,45.78
2022-08-26T14:46:52.828Z,46.03
2022-08-26T14:49:21.951Z,45.61
2022-08-26T14:51:48.635Z,45.89
2022-08-26T14:54:16.640Z,45.54
2022-08-26T14:56:46.163Z,45.08
2022-08-26T14:59:21.753Z,45.34
2022-08-26T15:01:49.007Z,44.63
2022-08-26T15:04:16.675Z,42.95
2022-08-26T15:06:43.545Z,42.79
2022-08-26T15:09:10.795Z,43.00
2022-08-26T15:11:38.032Z,43.00
2022-08-26T15:14:05.510Z,43.82
2022-08-26T15:16:33.559Z,44.28
2022-08-26T15:19:04.606Z,43.45
2022-08-26T15:21:33.909Z,44.57
2022-08-26T15:24:00.953Z,45.03
2022-08-26T15:26:30.185Z,45.36
2022-08-26T15:28:58.386Z,44.61
2022-08-26T15:31:31.240Z,45.05
2022-08-26T15:33:59.706Z,45.30
2022-08-26T15:36:28.820Z,45.62
2022-08-26T15:38:56.541Z,46.35
2022-08-26T15:41:23.277Z,46.47
2022-08-26T15:43:51.525Z,45.51
2022-08-26T15:46:18.673Z,47.81
2022-08-26T15:48:45.797Z,48.49
2022-08-26T15:51:24.509Z,50.13
2022-08-26T15:53:52.464Z,50.79
2022-08-26T15:56:19.368Z,58.84
2022-08-26T15:58:46.712Z,66.13
2022-08-26T16:01:14.825Z,70.06
2022-08-26T16:03:45.196Z,71.97
2022-08-26T16:06:16.151Z,76.95
2022-08-26T16:08:45.101Z,80.47
2022-08-26T16:11:13.435Z,81.44
2022-08-26T16:13:40.679Z,82.37
2022-08-26T16:16:08.019Z,83.76
2022-08-26T16:18:34.895Z,87.10
2022-08-26T16:21:13.604Z,88.94
2022-08-26T16:23:44.860Z,88.04
2022-08-26T16:26:22.239Z,87.05
2022-08-26T16:28:49.417Z,85.80
2022-08-26T16:31:16.908Z,83.40
2022-08-26T16:33:43.959Z,83.97
2022-08-26T16:36:11.298Z,85.62
2022-08-26T16:38:38.961Z,84.47
2022-08-26T16:41:06.634Z,83.23
2022-08-26T16:43:33.715Z,82.96
2022-08-26T16:46:00.615Z,84.51
2022-08-26T16:48:29.762Z,85.60
2022-08-26T16:50:56.420Z,86.57
2022-08-26T16:53:23.651Z,87.61
2022-08-26T16:55:50.713Z,88.81
2022-08-26T16:58:17.827Z,90.13
2022-08-26T17:00:45.134Z,90.87
2022-08-26T17:03:12.306Z,91.58
2022-08-26T17:05:40.239Z,91.96
2022-08-26T17:08:07.294Z,92.88
2022-08-26T17:10:34.167Z,93.33
2022-08-26T17:13:00.923Z,93.65
2022-08-26T17:15:27.815Z,94.27
2022-08-26T17:17:56.697Z,94.45
2022-08-26T17:20:25.685Z,95.06
2022-08-26T17:22:54.904Z,95.81
2022-08-26T17:25:26.791Z,96.59
2022-08-26T17:27:54.244Z,97.25
2022-08-26T17:30:21.902Z,97.36
2022-08-26T17:32:49.518Z,97.72
2022-08-26T17:35:16.854Z,97.86
2022-08-26T17:37:43.894Z,98.42
2022-08-26T17:40:16.099Z,98.45
2022-08-26T17:42:46.629Z,98.02
2022-08-26T17:45:14.664Z,98.55
2022-08-26T17:47:41.342Z,98.95
2022-08-26T17:50:11.149Z,99.39
2022-08-26T17:52:38.789Z,99.73
2022-08-26T17:55:07.377Z,100.00
2022-08-26T17:57:39.749Z,99.99
2022-08-26T18:00:12.500Z,99.94
2022-08-26T18:02:40.265Z,100.00
2022-08-26T18:05:11.930Z,100.00
2022-08-26T18:07:43.824Z,100.00
2022-08-26T18:10:14.604Z,100.00
2022-08-26T18:12:41.689Z,100.00
2022-08-26T18:15:10.420Z,100.00
2022-08-26T18:17:39.337Z,100.00
2022-08-26T18:20:15.525Z,100.00
2022-08-26T18:22:43.534Z,100.00
2022-08-26T18:25:11.844Z,100.00
2022-08-26T18:27:39.099Z,100.00
2022-08-26T18:30:14.597Z,100.00
2022-08-26T18:32:43.324Z,100.00
2022-08-26T18:35:13.852Z,100.00
2022-08-26T18:37:40.846Z,100.00
2022-08-26T18:40:10.366Z,100.00
2022-08-26T18:42:38.420Z,100.00
2022-08-26T18:45:06.513Z,100.00
2022-08-26T18:47:34.475Z,100.00
2022-08-26T18:50:03.435Z,100.00
2022-08-26T18:52:31.641Z,100.00
2022-08-26T18:54:59.433Z,100.00
2022-08-26T18:57:26.066Z,100.00
2022-08-26T18:59:52.909Z,100.00
2022-08-26T19:02:21.606Z,100.00
2022-08-26T19:04:48.701Z,100.00
2022-08-26T19:07:15.584Z,100.00
2022-08-26T19:09:45.031Z,100.00
2022-08-26T19:12:11.657Z,100.00
2022-08-26T19:14:38.314Z,100.00
2022-08-26T19:17:05.821Z,100.00
2022-08-26T19:19:32.869Z,100.00
2022-08-26T19:21:59.957Z,100.00
2022-08-26T19:24:28.415Z,100.00
2022-08-26T19:26:59.397Z,100.00
2022-08-26T19:29:31.414Z,100.00
2022-08-26T19:31:58.841Z,100.00
2022-08-26T19:34:26.658Z,100.00
2022-08-26T19:36:57.683Z,100.00
2022-08-26T19:39:25.966Z,100.00
2022-08-26T19:41:55.712Z,100.00
2022-08-26T19:44:44.584Z,100.00
2022-08-26T19:47:12.131Z,100.00
2022-08-26T19:49:39.136Z,100.00
2022-08-26T19:52:06.285Z,100.00
2022-08-26T19:54:35.159Z,100.00
2022-08-26T19:57:02.182Z,100.00
2022-08-26T19:59:29.262Z,100.00
2022-08-26T20:02:00.665Z,100.00
2022-08-26T20:04:30.442Z,100.00
2022-08-26T20:06:58.661Z,100.00
2022-08-26T20:09:31.622Z,100.00
2022-08-26T20:11:58.698Z,100.00
2022-08-26T20:14:26.477Z,100.00
2022-08-26T20:16:56.636Z,100.00
2022-08-26T20:19:41.921Z,100.00
2022-08-26T20:22:09.767Z,100.00
2022-08-26T20:24:37.838Z,100.00
2022-08-26T20:27:08.029Z,100.00
2022-08-26T20:29:35.988Z,100.00
2022-08-26T20:32:03.890Z,100.00
2022-08-26T20:34:31.693Z,100.00
2022-08-26T20:36:59.303Z,100.00
2022-08-26T20:39:29.457Z,100.00
2022-08-26T20:41:57.642Z,100.00
2022-08-26T20:44:25.347Z,100.00
2022-08-26T20:46:52.976Z,100.00
2022-08-26T20:49:19.729Z,100.00
2022-08-26T20:51:51.339Z,100.00
2022-08-26T20:54:20.108Z,100.00
2022-08-26T20:56:47.526Z,100.00
2022-08-26T20:59:14.537Z,100.00
2022-08-26T21:01:42.802Z,100.00
2022-08-26T21:04:13.077Z,100.00
2022-08-26T21:06:45.125Z,100.00
2022-08-26T21:09:25.750Z,100.00
2022-08-26T21:11:53.561Z,100.00
2022-08-26T21:14:22.744Z,100.00
2022-08-26T21:16:52.548Z,100.00
2022-08-26T21:19:19.508Z,100.00
2022-08-26T21:21:47.928Z,100.00
2022-08-26T21:24:15.056Z,100.00
2022-08-26T21:26:42.155Z,100.00
2022-08-26T21:29:10.093Z,100.00
2022-08-26T21:31:40.979Z,100.00
2022-08-26T21:34:11.783Z,100.00
2022-08-26T21:36:38.371Z,100.00
2022-08-26T21:39:10.720Z,100.00
2022-08-26T21:41:39.445Z,100.00
2022-08-26T21:44:07.849Z,100.00
2022-08-26T21:46:37.092Z,100.00
2022-08-26T21:49:10.502Z,100.00
2022-08-26T21:51:44.286Z,100.00
2022-08-26T21:54:12.699Z,100.00
2022-08-26T21:56:45.029Z,100.00
2022-08-26T21:59:13.351Z,100.00
2022-08-26T22:01:40.071Z,100.00
2022-08-26T22:04:08.556Z,100.00
2022-08-26T22:06:40.737Z,100.00
2022-08-26T22:09:07.754Z,100.00
2022-08-26T22:11:34.417Z,100.00
2022-08-26T22:14:01.250Z,100.00
2022-08-26T22:16:33.057Z,100.00
2022-08-26T22:18:59.934Z,100.00
2022-08-26T22:21:30.706Z,100.00
2022-08-26T22:23:58.687Z,100.00
2022-08-26T22:26:28.986Z,100.00
2022-08-26T22:28:59.626Z,100.00
2022-08-26T22:31:37.953Z,100.00
2022-08-26T22:34:08.230Z,100.00
2022-08-26T22:36:35.485Z,100.00
2022-08-26T22:39:10.465Z,100.00
2022-08-26T22:41:37.343Z,100.00
2022-08-26T22:44:04.562Z,100.00
2022-08-26T22:46:32.886Z,100.00
2022-08-26T22:48:59.555Z,100.00
2022-08-26T22:51:27.770Z,100.00
2022-08-26T22:53:54.418Z,100.00
2022-08-26T22:56:22.007Z,100.00
2022-08-26T22:58:56.838Z,100.00
2022-08-26T23:01:23.830Z,100.00
2022-08-26T23:03:50.697Z,100.00
2022-08-26T23:06:17.385Z,100.00
2022-08-26T23:08:46.252Z,100.00
2022-08-26T23:11:14.253Z,100.00
2022-08-26T23:13:45.851Z,100.00
2022-08-26T23:16:13.146Z,100.00
2022-08-26T23:18:40.853Z,100.00
2022-08-26T23:21:08.436Z,100.00
2022-08-26T23:23:35.286Z,100.00
2022-08-26T23:26:05.921Z,100.00
2022-08-26T23:28:33.623Z,100.00
2022-08-26T23:31:01.714Z,100.00
2022-08-26T23:33:48.543Z,100.00
2022-08-26T23:36:18.185Z,100.00
2022-08-26T23:38:52.471Z,100.00
2022-08-26T23:41:23.192Z,100.00
2022-08-26T23:43:51.494Z,100.00
2022-08-26T23:46:20.637Z,100.00
2022-08-26T23:48:48.669Z,100.00
2022-08-26T23:51:34.087Z,100.00
2022-08-26T23:54:00.885Z,100.00
2022-08-26T23:56:28.557Z,100.00
2022-08-26T23:58:55.900Z,100.00
